sensor_id;sensor_type;location;lat;lon;timestamp;pressure;altitude;pressure_sealevel;temperature;humidity
39555;BME280;25231;48.746;9.234;2022-08-14T00:00:23;96354.78;;;20.77;45.35
39555;BME280;25231;48.746;9.234;2022-08-14T00:02:48;96354.69;;;20.68;45.41
39555;BME280;25231;48.746;9.234;2022-08-14T00:05:18;96358.09;;;20.60;45.94
39555;BME280;25231;48.746;9.234;2022-08-14T00:07:45;96348.25;;;20.47;46.07
39555;BME280;25231;48.746;9.234;2022-08-14T00:10:13;96345.81;;;20.37;46.34
39555;BME280;25231;48.746;9.234;2022-08-14T00:12:42;96334.28;;;20.42;46.17
39555;BME280;25231;48.746;9.234;2022-08-14T00:15:20;96328.34;;;20.31;46.46
39555;BME280;25231;48.746;9.234;2022-08-14T00:17:46;96321.97;;;20.32;46.25
39555;BME280;25231;48.746;9.234;2022-08-14T00:20:12;96322.84;;;20.27;46.52
39555;BME280;25231;48.746;9.234;2022-08-14T00:22:37;96327.56;;;20.30;46.47
39555;BME280;25231;48.746;9.234;2022-08-14T00:25:07;96329.16;;;20.31;46.41
39555;BME280;25231;48.746;9.234;2022-08-14T00:27:33;96319.69;;;20.25;46.63
39555;BME280;25231;48.746;9.234;2022-08-14T00:29:58;96314.19;;;20.22;46.53
39555;BME280;25231;48.746;9.234;2022-08-14T00:32:23;96314.66;;;20.24;46.68
39555;BME280;25231;48.746;9.234;2022-08-14T00:34:49;96306.59;;;20.15;46.71
39555;BME280;25231;48.746;9.234;2022-08-14T00:37:14;96297.16;;;20.09;46.85
39555;BME280;25231;48.746;9.234;2022-08-14T00:39:40;96292.41;;;20.20;46.64
39555;BME280;25231;48.746;9.234;2022-08-14T00:42:05;96292.50;;;20.15;46.58
39555;BME280;25231;48.746;9.234;2022-08-14T00:44:31;96294.44;;;20.23;46.42
39555;BME280;25231;48.746;9.234;2022-08-14T00:46:56;96300.88;;;20.22;46.39
39555;BME280;25231;48.746;9.234;2022-08-14T00:49:22;96293.59;;;20.14;46.72
39555;BME280;25231;48.746;9.234;2022-08-14T00:51:48;96291.31;;;20.21;46.55
39555;BME280;25231;48.746;9.234;2022-08-14T00:54:14;96291.16;;;20.04;47.05
39555;BME280;25231;48.746;9.234;2022-08-14T00:56:40;96291.72;;;20.01;47.00
39555;BME280;25231;48.746;9.234;2022-08-14T00:59:06;96283.78;;;19.87;47.43
39555;BME280;25231;48.746;9.234;2022-08-14T01:01:32;96295.91;;;19.93;47.58
39555;BME280;25231;48.746;9.234;2022-08-14T01:04:01;96290.09;;;19.77;47.76
39555;BME280;25231;48.746;9.234;2022-08-14T01:06:28;96292.06;;;19.99;47.52
39555;BME280;25231;48.746;9.234;2022-08-14T01:08:54;96289.84;;;20.01;47.53
39555;BME280;25231;48.746;9.234;2022-08-14T01:11:20;96282.50;;;19.84;48.30
39555;BME280;25231;48.746;9.234;2022-08-14T01:13:46;96286.56;;;19.82;48.49
39555;BME280;25231;48.746;9.234;2022-08-14T01:16:15;96288.53;;;19.63;49.01
39555;BME280;25231;48.746;9.234;2022-08-14T01:18:42;96282.22;;;19.45;49.65
39555;BME280;25231;48.746;9.234;2022-08-14T01:21:33;96276.09;;;19.44;49.83
39555;BME280;25231;48.746;9.234;2022-08-14T01:24:00;96268.31;;;19.34;49.96
39555;BME280;25231;48.746;9.234;2022-08-14T01:26:27;96269.56;;;19.23;50.46
39555;BME280;25231;48.746;9.234;2022-08-14T01:28:55;96275.69;;;19.10;50.87
39555;BME280;25231;48.746;9.234;2022-08-14T01:31:28;96271.34;;;19.14;50.77
39555;BME280;25231;48.746;9.234;2022-08-14T01:33:57;96279.22;;;19.05;50.68
39555;BME280;25231;48.746;9.234;2022-08-14T01:36:24;96272.63;;;19.17;50.34
39555;BME280;25231;48.746;9.234;2022-08-14T01:38:52;96272.22;;;19.23;50.44
39555;BME280;25231;48.746;9.234;2022-08-14T01:41:21;96272.31;;;19.18;50.37
39555;BME280;25231;48.746;9.234;2022-08-14T01:43:57;96261.59;;;19.09;50.79
39555;BME280;25231;48.746;9.234;2022-08-14T01:46:29;96262.97;;;19.07;51.06
39555;BME280;25231;48.746;9.234;2022-08-14T01:48:56;96253.06;;;19.26;50.39
39555;BME280;25231;48.746;9.234;2022-08-14T01:51:22;96264.16;;;19.15;50.63
39555;BME280;25231;48.746;9.234;2022-08-14T01:53:54;96261.97;;;19.03;51.12
39555;BME280;25231;48.746;9.234;2022-08-14T01:56:22;96259.97;;;18.95;51.51
39555;BME280;25231;48.746;9.234;2022-08-14T01:58:58;96261.75;;;18.86;51.71
39555;BME280;25231;48.746;9.234;2022-08-14T02:01:24;96245.81;;;18.86;51.72
39555;BME280;25231;48.746;9.234;2022-08-14T02:03:51;96242.00;;;18.92;51.64
39555;BME280;25231;48.746;9.234;2022-08-14T02:06:16;96232.72;;;18.89;51.66
39555;BME280;25231;48.746;9.234;2022-08-14T02:08:42;96229.06;;;18.72;52.24
39555;BME280;25231;48.746;9.234;2022-08-14T02:11:09;96229.38;;;18.84;51.71
39555;BME280;25231;48.746;9.234;2022-08-14T02:13:42;96228.19;;;18.76;52.19
39555;BME280;25231;48.746;9.234;2022-08-14T02:16:12;96232.44;;;18.77;52.03
39555;BME280;25231;48.746;9.234;2022-08-14T02:18:41;96243.84;;;18.78;52.07
39555;BME280;25231;48.746;9.234;2022-08-14T02:21:06;96246.38;;;18.69;52.32
39555;BME280;25231;48.746;9.234;2022-08-14T02:23:33;96254.59;;;18.67;52.26
39555;BME280;25231;48.746;9.234;2022-08-14T02:25:59;96252.00;;;18.81;52.07
39555;BME280;25231;48.746;9.234;2022-08-14T02:28:26;96245.91;;;18.81;52.04
39555;BME280;25231;48.746;9.234;2022-08-14T02:30:57;96243.50;;;18.65;52.54
39555;BME280;25231;48.746;9.234;2022-08-14T02:33:23;96241.56;;;18.71;52.52
39555;BME280;25231;48.746;9.234;2022-08-14T02:35:48;96238.13;;;18.52;53.14
39555;BME280;25231;48.746;9.234;2022-08-14T02:38:14;96229.53;;;18.41;53.40
39555;BME280;25231;48.746;9.234;2022-08-14T02:40:39;96224.66;;;18.48;53.02
39555;BME280;25231;48.746;9.234;2022-08-14T02:43:05;96213.16;;;18.53;52.75
39555;BME280;25231;48.746;9.234;2022-08-14T02:45:31;96212.44;;;18.47;53.18
39555;BME280;25231;48.746;9.234;2022-08-14T02:47:59;96204.22;;;18.49;52.92
39555;BME280;25231;48.746;9.234;2022-08-14T02:50:25;96200.34;;;18.41;53.17
39555;BME280;25231;48.746;9.234;2022-08-14T02:52:50;96198.97;;;18.44;53.09
39555;BME280;25231;48.746;9.234;2022-08-14T02:55:18;96192.28;;;18.46;52.89
39555;BME280;25231;48.746;9.234;2022-08-14T02:57:45;96183.16;;;18.52;52.95
39555;BME280;25231;48.746;9.234;2022-08-14T03:00:11;96183.09;;;18.57;52.80
39555;BME280;25231;48.746;9.234;2022-08-14T03:02:37;96179.53;;;18.48;52.71
39555;BME280;25231;48.746;9.234;2022-08-14T03:05:03;96175.38;;;18.42;53.08
39555;BME280;25231;48.746;9.234;2022-08-14T03:07:29;96181.84;;;18.36;53.17
39555;BME280;25231;48.746;9.234;2022-08-14T03:09:54;96184.50;;;18.36;53.26
39555;BME280;25231;48.746;9.234;2022-08-14T03:12:20;96183.09;;;18.25;53.85
39555;BME280;25231;48.746;9.234;2022-08-14T03:14:46;96177.44;;;18.13;54.50
39555;BME280;25231;48.746;9.234;2022-08-14T03:17:15;96177.66;;;18.16;54.43
39555;BME280;25231;48.746;9.234;2022-08-14T03:19:41;96177.19;;;18.28;53.83
39555;BME280;25231;48.746;9.234;2022-08-14T03:22:07;96173.34;;;18.20;54.03
39555;BME280;25231;48.746;9.234;2022-08-14T03:24:32;96176.28;;;18.19;53.84
39555;BME280;25231;48.746;9.234;2022-08-14T03:26:58;96172.13;;;18.13;54.28
39555;BME280;25231;48.746;9.234;2022-08-14T03:29:23;96167.41;;;18.10;54.40
39555;BME280;25231;48.746;9.234;2022-08-14T03:31:50;96165.31;;;18.07;54.32
39555;BME280;25231;48.746;9.234;2022-08-14T03:34:16;96160.97;;;17.97;54.55
39555;BME280;25231;48.746;9.234;2022-08-14T03:36:43;96151.31;;;17.88;55.01
39555;BME280;25231;48.746;9.234;2022-08-14T03:39:10;96146.22;;;17.91;54.78
39555;BME280;25231;48.746;9.234;2022-08-14T03:41:37;96143.53;;;17.77;55.67
39555;BME280;25231;48.746;9.234;2022-08-14T03:44:05;96143.94;;;17.84;55.47
39555;BME280;25231;48.746;9.234;2022-08-14T03:46:33;96150.31;;;17.83;55.47
39555;BME280;25231;48.746;9.234;2022-08-14T03:49:00;96144.44;;;17.68;56.20
39555;BME280;25231;48.746;9.234;2022-08-14T03:51:27;96149.66;;;17.73;55.96
39555;BME280;25231;48.746;9.234;2022-08-14T03:53:55;96145.94;;;17.74;56.00
39555;BME280;25231;48.746;9.234;2022-08-14T03:56:21;96145.31;;;17.63;56.55
39555;BME280;25231;48.746;9.234;2022-08-14T03:58:49;96149.06;;;17.57;56.73
39555;BME280;25231;48.746;9.234;2022-08-14T04:01:17;96144.84;;;17.56;57.06
39555;BME280;25231;48.746;9.234;2022-08-14T04:03:47;96139.22;;;17.63;57.04
39555;BME280;25231;48.746;9.234;2022-08-14T04:06:12;96139.66;;;17.70;56.72
39555;BME280;25231;48.746;9.234;2022-08-14T04:08:39;96142.09;;;17.66;56.80
39555;BME280;25231;48.746;9.234;2022-08-14T04:11:06;96152.06;;;17.51;57.32
39555;BME280;25231;48.746;9.234;2022-08-14T04:13:34;96140.31;;;17.57;57.33
39555;BME280;25231;48.746;9.234;2022-08-14T04:16:10;96141.13;;;17.57;57.27
39555;BME280;25231;48.746;9.234;2022-08-14T04:18:44;96141.19;;;17.52;57.42
39555;BME280;25231;48.746;9.234;2022-08-14T04:21:11;96130.00;;;17.36;58.21
39555;BME280;25231;48.746;9.234;2022-08-14T04:23:37;96124.50;;;17.52;57.38
39555;BME280;25231;48.746;9.234;2022-08-14T04:26:05;96129.19;;;17.60;57.14
39555;BME280;25231;48.746;9.234;2022-08-14T04:28:31;96132.03;;;17.63;57.20
39555;BME280;25231;48.746;9.234;2022-08-14T04:30:56;96123.34;;;17.39;58.13
39555;BME280;25231;48.746;9.234;2022-08-14T04:33:22;96120.84;;;17.48;57.79
39555;BME280;25231;48.746;9.234;2022-08-14T04:35:48;96126.66;;;17.50;57.67
39555;BME280;25231;48.746;9.234;2022-08-14T04:38:15;96130.31;;;17.72;56.89
39555;BME280;25231;48.746;9.234;2022-08-14T04:41:00;96132.97;;;17.72;56.75
39555;BME280;25231;48.746;9.234;2022-08-14T04:43:44;96131.91;;;17.73;57.11
39555;BME280;25231;48.746;9.234;2022-08-14T04:46:13;96125.09;;;17.86;56.59
39555;BME280;25231;48.746;9.234;2022-08-14T04:48:39;96128.88;;;17.61;57.12
39555;BME280;25231;48.746;9.234;2022-08-14T04:51:08;96123.59;;;17.80;56.84
39555;BME280;25231;48.746;9.234;2022-08-14T04:53:34;96127.53;;;17.82;56.86
39555;BME280;25231;48.746;9.234;2022-08-14T04:56:00;96134.03;;;17.90;56.86
39555;BME280;25231;48.746;9.234;2022-08-14T04:58:28;96138.69;;;17.98;56.71
39555;BME280;25231;48.746;9.234;2022-08-14T05:00:55;96144.69;;;18.36;55.75
39555;BME280;25231;48.746;9.234;2022-08-14T05:03:21;96142.13;;;18.63;54.84
39555;BME280;25231;48.746;9.234;2022-08-14T05:05:49;96144.31;;;19.16;52.83
39555;BME280;25231;48.746;9.234;2022-08-14T05:08:15;96153.03;;;19.44;52.20
39555;BME280;25231;48.746;9.234;2022-08-14T05:10:46;96143.78;;;19.55;51.74
39555;BME280;25231;48.746;9.234;2022-08-14T05:13:15;96149.94;;;19.78;51.14
39555;BME280;25231;48.746;9.234;2022-08-14T05:15:41;96154.63;;;19.95;50.52
39555;BME280;25231;48.746;9.234;2022-08-14T05:18:08;96146.00;;;20.33;49.60
39555;BME280;25231;48.746;9.234;2022-08-14T05:20:38;96141.47;;;20.73;48.62
39555;BME280;25231;48.746;9.234;2022-08-14T05:23:04;96148.44;;;20.52;49.05
39555;BME280;25231;48.746;9.234;2022-08-14T05:25:32;96145.06;;;21.08;48.13
39555;BME280;25231;48.746;9.234;2022-08-14T05:28:05;96145.84;;;21.09;47.96
39555;BME280;25231;48.746;9.234;2022-08-14T05:30:31;96138.00;;;20.95;48.76
39555;BME280;25231;48.746;9.234;2022-08-14T05:32:56;96134.63;;;21.21;48.24
39555;BME280;25231;48.746;9.234;2022-08-14T05:35:22;96137.84;;;21.66;47.16
39555;BME280;25231;48.746;9.234;2022-08-14T05:37:47;96130.94;;;21.65;46.42
39555;BME280;25231;48.746;9.234;2022-08-14T05:40:13;96140.53;;;21.66;47.12
39555;BME280;25231;48.746;9.234;2022-08-14T05:42:38;96132.78;;;21.30;47.64
39555;BME280;25231;48.746;9.234;2022-08-14T05:45:04;96130.28;;;21.33;48.04
39555;BME280;25231;48.746;9.234;2022-08-14T05:47:30;96125.41;;;21.27;48.35
39555;BME280;25231;48.746;9.234;2022-08-14T05:49:56;96126.22;;;21.53;47.64
39555;BME280;25231;48.746;9.234;2022-08-14T05:52:22;96120.59;;;21.72;47.40
39555;BME280;25231;48.746;9.234;2022-08-14T05:54:47;96123.09;;;21.85;47.13
39555;BME280;25231;48.746;9.234;2022-08-14T05:57:13;96127.97;;;21.83;47.53
39555;BME280;25231;48.746;9.234;2022-08-14T05:59:39;96127.81;;;22.23;46.53
39555;BME280;25231;48.746;9.234;2022-08-14T06:02:07;96132.22;;;22.02;46.85
39555;BME280;25231;48.746;9.234;2022-08-14T06:04:32;96123.78;;;22.63;45.73
39555;BME280;25231;48.746;9.234;2022-08-14T06:06:57;96130.28;;;22.45;45.78
39555;BME280;25231;48.746;9.234;2022-08-14T06:09:23;96126.00;;;22.61;45.10
39555;BME280;25231;48.746;9.234;2022-08-14T06:11:48;96128.84;;;22.48;45.66
39555;BME280;25231;48.746;9.234;2022-08-14T06:14:13;96129.50;;;22.36;46.24
39555;BME280;25231;48.746;9.234;2022-08-14T06:16:39;96131.06;;;22.46;45.80
39555;BME280;25231;48.746;9.234;2022-08-14T06:19:06;96124.50;;;22.26;46.67
39555;BME280;25231;48.746;9.234;2022-08-14T06:21:32;96120.44;;;22.28;46.09
39555;BME280;25231;48.746;9.234;2022-08-14T06:23:57;96119.03;;;22.22;46.35
39555;BME280;25231;48.746;9.234;2022-08-14T06:26:22;96113.97;;;22.29;46.70
39555;BME280;25231;48.746;9.234;2022-08-14T06:28:49;96118.13;;;22.73;45.42
39555;BME280;25231;48.746;9.234;2022-08-14T06:31:14;96115.53;;;22.86;45.03
39555;BME280;25231;48.746;9.234;2022-08-14T06:33:40;96106.88;;;22.42;45.23
39555;BME280;25231;48.746;9.234;2022-08-14T06:36:05;96103.75;;;22.87;44.33
39555;BME280;25231;48.746;9.234;2022-08-14T06:38:31;96097.03;;;23.39;43.88
39555;BME280;25231;48.746;9.234;2022-08-14T06:40:56;96088.63;;;23.70;43.29
39555;BME280;25231;48.746;9.234;2022-08-14T06:43:22;96095.03;;;23.78;42.41
39555;BME280;25231;48.746;9.234;2022-08-14T06:45:48;96095.28;;;23.64;42.97
39555;BME280;25231;48.746;9.234;2022-08-14T06:48:15;96089.69;;;23.78;42.45
39555;BME280;25231;48.746;9.234;2022-08-14T06:50:42;96081.84;;;23.73;42.56
39555;BME280;25231;48.746;9.234;2022-08-14T06:53:07;96079.19;;;22.47;44.43
39555;BME280;25231;48.746;9.234;2022-08-14T06:55:33;96074.41;;;23.07;42.69
39555;BME280;25231;48.746;9.234;2022-08-14T06:57:59;96075.94;;;23.38;42.98
39555;BME280;25231;48.746;9.234;2022-08-14T07:00:26;96081.44;;;23.83;42.12
39555;BME280;25231;48.746;9.234;2022-08-14T07:02:52;96083.09;;;24.08;41.83
39555;BME280;25231;48.746;9.234;2022-08-14T07:05:37;96081.19;;;24.09;41.60
39555;BME280;25231;48.746;9.234;2022-08-14T07:08:23;96081.94;;;24.30;40.94
39555;BME280;25231;48.746;9.234;2022-08-14T07:10:52;96073.63;;;24.43;40.46
39555;BME280;25231;48.746;9.234;2022-08-14T07:13:19;96072.38;;;24.08;41.24
39555;BME280;25231;48.746;9.234;2022-08-14T07:15:50;96060.56;;;24.54;40.75
39555;BME280;25231;48.746;9.234;2022-08-14T07:18:23;96064.63;;;23.61;41.81
39555;BME280;25231;48.746;9.234;2022-08-14T07:20:49;96060.09;;;24.28;40.85
39555;BME280;25231;48.746;9.234;2022-08-14T07:23:15;96063.50;;;24.61;40.54
39555;BME280;25231;48.746;9.234;2022-08-14T07:25:42;96069.81;;;24.32;41.00
39555;BME280;25231;48.746;9.234;2022-08-14T07:28:19;96069.19;;;24.60;40.94
39555;BME280;25231;48.746;9.234;2022-08-14T07:30:44;96070.91;;;24.31;41.01
39555;BME280;25231;48.746;9.234;2022-08-14T07:33:11;96068.91;;;24.08;40.75
39555;BME280;25231;48.746;9.234;2022-08-14T07:35:39;96057.63;;;23.48;42.33
39555;BME280;25231;48.746;9.234;2022-08-14T07:38:06;96066.38;;;23.07;42.71
39555;BME280;25231;48.746;9.234;2022-08-14T07:40:32;96073.44;;;23.12;42.43
39555;BME280;25231;48.746;9.234;2022-08-14T07:42:59;96078.34;;;23.31;42.29
39555;BME280;25231;48.746;9.234;2022-08-14T07:45:25;96076.16;;;23.53;40.72
39555;BME280;25231;48.746;9.234;2022-08-14T07:47:52;96086.22;;;24.43;39.27
39555;BME280;25231;48.746;9.234;2022-08-14T07:50:20;96077.53;;;24.34;39.60
39555;BME280;25231;48.746;9.234;2022-08-14T07:52:47;96086.81;;;24.16;39.79
39555;BME280;25231;48.746;9.234;2022-08-14T07:55:15;96074.53;;;24.60;40.04
39555;BME280;25231;48.746;9.234;2022-08-14T07:57:42;96083.38;;;24.60;39.86
39555;BME280;25231;48.746;9.234;2022-08-14T08:00:11;96081.59;;;24.76;39.37
39555;BME280;25231;48.746;9.234;2022-08-14T08:02:40;96078.97;;;24.43;38.95
39555;BME280;25231;48.746;9.234;2022-08-14T08:05:07;96080.13;;;24.67;39.53
39555;BME280;25231;48.746;9.234;2022-08-14T08:07:34;96089.41;;;24.81;39.14
39555;BME280;25231;48.746;9.234;2022-08-14T08:10:04;96087.19;;;25.20;37.82
39555;BME280;25231;48.746;9.234;2022-08-14T08:12:50;96081.03;;;24.83;39.13
39555;BME280;25231;48.746;9.234;2022-08-14T08:15:17;96078.50;;;24.99;39.01
39555;BME280;25231;48.746;9.234;2022-08-14T08:17:43;96077.13;;;24.56;39.67
39555;BME280;25231;48.746;9.234;2022-08-14T08:20:20;96078.91;;;24.76;38.00
39555;BME280;25231;48.746;9.234;2022-08-14T08:22:47;96067.72;;;24.50;39.03
39555;BME280;25231;48.746;9.234;2022-08-14T08:25:13;96071.41;;;24.46;38.38
39555;BME280;25231;48.746;9.234;2022-08-14T08:27:39;96071.31;;;24.66;38.65
39555;BME280;25231;48.746;9.234;2022-08-14T08:30:06;96072.31;;;24.62;38.11
39555;BME280;25231;48.746;9.234;2022-08-14T08:32:41;96063.19;;;24.99;37.98
39555;BME280;25231;48.746;9.234;2022-08-14T08:35:25;96064.38;;;25.26;38.02
39555;BME280;25231;48.746;9.234;2022-08-14T08:37:52;96060.91;;;25.25;38.09
39555;BME280;25231;48.746;9.234;2022-08-14T08:40:23;96064.94;;;25.19;37.18
39555;BME280;25231;48.746;9.234;2022-08-14T08:42:48;96075.91;;;25.02;37.85
39555;BME280;25231;48.746;9.234;2022-08-14T08:45:15;96072.09;;;25.40;37.58
39555;BME280;25231;48.746;9.234;2022-08-14T08:47:41;96066.41;;;25.69;37.12
39555;BME280;25231;48.746;9.234;2022-08-14T08:50:32;96064.38;;;25.78;37.01
39555;BME280;25231;48.746;9.234;2022-08-14T08:53:04;96062.84;;;25.01;37.80
39555;BME280;25231;48.746;9.234;2022-08-14T08:55:34;96059.47;;;25.16;36.63
39555;BME280;25231;48.746;9.234;2022-08-14T08:58:08;96061.66;;;25.62;36.48
39555;BME280;25231;48.746;9.234;2022-08-14T09:00:36;96061.19;;;25.48;35.80
39555;BME280;25231;48.746;9.234;2022-08-14T09:03:10;96049.22;;;25.18;36.07
39555;BME280;25231;48.746;9.234;2022-08-14T09:05:37;96033.97;;;25.34;35.74
39555;BME280;25231;48.746;9.234;2022-08-14T09:08:14;96035.09;;;25.21;36.25
39555;BME280;25231;48.746;9.234;2022-08-14T09:10:40;96038.59;;;25.09;37.33
39555;BME280;25231;48.746;9.234;2022-08-14T09:13:06;96028.78;;;25.41;36.86
39555;BME280;25231;48.746;9.234;2022-08-14T09:15:32;96031.25;;;25.46;37.39
39555;BME280;25231;48.746;9.234;2022-08-14T09:17:58;96034.19;;;25.69;36.92
39555;BME280;25231;48.746;9.234;2022-08-14T09:20:24;96028.59;;;25.34;37.38
39555;BME280;25231;48.746;9.234;2022-08-14T09:22:49;96030.28;;;25.79;36.81
39555;BME280;25231;48.746;9.234;2022-08-14T09:25:16;96035.75;;;26.26;36.05
39555;BME280;25231;48.746;9.234;2022-08-14T09:27:42;96044.53;;;25.55;36.82
39555;BME280;25231;48.746;9.234;2022-08-14T09:30:08;96033.13;;;25.58;36.86
39555;BME280;25231;48.746;9.234;2022-08-14T09:32:45;96042.44;;;25.36;37.22
39555;BME280;25231;48.746;9.234;2022-08-14T09:35:23;96033.78;;;25.55;36.45
39555;BME280;25231;48.746;9.234;2022-08-14T09:38:03;96044.09;;;26.08;35.68
39555;BME280;25231;48.746;9.234;2022-08-14T09:43:42;96041.72;;;25.63;35.17
39555;BME280;25231;48.746;9.234;2022-08-14T09:46:11;96035.81;;;26.14;34.65
39555;BME280;25231;48.746;9.234;2022-08-14T09:48:37;96031.84;;;25.80;34.77
39555;BME280;25231;48.746;9.234;2022-08-14T09:51:06;96028.63;;;26.18;34.65
39555;BME280;25231;48.746;9.234;2022-08-14T09:53:44;96017.50;;;25.76;35.47
39555;BME280;25231;48.746;9.234;2022-08-14T09:56:12;96024.47;;;25.92;35.21
39555;BME280;25231;48.746;9.234;2022-08-14T09:58:45;96015.31;;;25.93;35.02
39555;BME280;25231;48.746;9.234;2022-08-14T10:01:13;96009.94;;;26.09;34.59
39555;BME280;25231;48.746;9.234;2022-08-14T10:03:53;96008.81;;;25.94;35.15
39555;BME280;25231;48.746;9.234;2022-08-14T10:06:24;95988.72;;;26.20;34.98
39555;BME280;25231;48.746;9.234;2022-08-14T10:09:05;95987.19;;;26.19;34.41
39555;BME280;25231;48.746;9.234;2022-08-14T10:11:33;95984.69;;;26.26;35.12
39555;BME280;25231;48.746;9.234;2022-08-14T10:14:12;95987.81;;;26.28;34.78
39555;BME280;25231;48.746;9.234;2022-08-14T10:16:43;95977.00;;;26.24;34.47
39555;BME280;25231;48.746;9.234;2022-08-14T10:19:11;95969.66;;;26.09;34.25
39555;BME280;25231;48.746;9.234;2022-08-14T10:21:40;95970.28;;;26.02;33.97
39555;BME280;25231;48.746;9.234;2022-08-14T10:24:09;95957.94;;;26.29;34.02
39555;BME280;25231;48.746;9.234;2022-08-14T10:26:35;95967.25;;;26.67;34.08
39555;BME280;25231;48.746;9.234;2022-08-14T10:29:08;95948.94;;;26.72;33.58
39555;BME280;25231;48.746;9.234;2022-08-14T10:31:37;95933.56;;;26.73;33.83
39555;BME280;25231;48.746;9.234;2022-08-14T10:34:05;95938.38;;;26.48;33.91
39555;BME280;25231;48.746;9.234;2022-08-14T10:36:42;95932.19;;;26.79;33.98
39555;BME280;25231;48.746;9.234;2022-08-14T10:39:20;95937.53;;;26.95;33.57
39555;BME280;25231;48.746;9.234;2022-08-14T10:41:47;95946.13;;;26.84;33.26
39555;BME280;25231;48.746;9.234;2022-08-14T10:44:15;95934.41;;;26.42;33.70
39555;BME280;25231;48.746;9.234;2022-08-14T10:46:44;95929.53;;;26.63;33.37
39555;BME280;25231;48.746;9.234;2022-08-14T10:49:21;95929.06;;;26.77;33.20
39555;BME280;25231;48.746;9.234;2022-08-14T10:54:34;95922.19;;;26.79;33.32
39555;BME280;25231;48.746;9.234;2022-08-14T10:57:19;95921.06;;;26.80;32.77
39555;BME280;25231;48.746;9.234;2022-08-14T10:59:54;95918.28;;;26.77;32.65
39555;BME280;25231;48.746;9.234;2022-08-14T11:02:34;95925.75;;;26.83;32.24
39555;BME280;25231;48.746;9.234;2022-08-14T11:05:12;95915.25;;;27.13;32.35
39555;BME280;25231;48.746;9.234;2022-08-14T11:10:19;95912.69;;;27.01;32.81
39555;BME280;25231;48.746;9.234;2022-08-14T11:12:47;95915.50;;;26.89;32.74
39555;BME280;25231;48.746;9.234;2022-08-14T11:15:25;95911.47;;;26.99;32.54
39555;BME280;25231;48.746;9.234;2022-08-14T11:17:52;95915.19;;;27.29;32.34
39555;BME280;25231;48.746;9.234;2022-08-14T11:20:20;95924.53;;;27.35;32.20
39555;BME280;25231;48.746;9.234;2022-08-14T11:22:46;95913.47;;;27.02;31.82
39555;BME280;25231;48.746;9.234;2022-08-14T11:25:16;95922.84;;;27.08;31.82
39555;BME280;25231;48.746;9.234;2022-08-14T11:27:44;95928.84;;;27.01;32.04
39555;BME280;25231;48.746;9.234;2022-08-14T11:30:21;95921.81;;;27.16;32.53
39555;BME280;25231;48.746;9.234;2022-08-14T11:32:49;95923.69;;;27.12;32.21
39555;BME280;25231;48.746;9.234;2022-08-14T11:35:25;95920.63;;;27.33;31.86
39555;BME280;25231;48.746;9.234;2022-08-14T11:37:51;95924.44;;;27.31;31.60
39555;BME280;25231;48.746;9.234;2022-08-14T11:40:17;95928.84;;;27.20;31.62
39555;BME280;25231;48.746;9.234;2022-08-14T11:42:47;95932.69;;;27.58;31.53
39555;BME280;25231;48.746;9.234;2022-08-14T11:45:13;95926.41;;;27.73;31.13
39555;BME280;25231;48.746;9.234;2022-08-14T11:47:39;95916.66;;;27.88;30.69
39555;BME280;25231;48.746;9.234;2022-08-14T11:52:37;95919.84;;;27.93;29.99
39555;BME280;25231;48.746;9.234;2022-08-14T11:55:07;95900.75;;;27.79;30.58
39555;BME280;25231;48.746;9.234;2022-08-14T11:57:33;95896.13;;;27.80;30.74
39555;BME280;25231;48.746;9.234;2022-08-14T12:00:05;95897.78;;;27.65;30.76
39555;BME280;25231;48.746;9.234;2022-08-14T12:02:32;95895.09;;;27.65;30.18
39555;BME280;25231;48.746;9.234;2022-08-14T12:04:57;95881.06;;;27.75;30.61
39555;BME280;25231;48.746;9.234;2022-08-14T12:07:23;95885.09;;;27.65;30.08
39555;BME280;25231;48.746;9.234;2022-08-14T12:09:52;95886.16;;;27.80;30.24
39555;BME280;25231;48.746;9.234;2022-08-14T12:12:23;95871.16;;;27.60;30.63
39555;BME280;25231;48.746;9.234;2022-08-14T12:17:18;95875.06;;;28.08;29.14
39555;BME280;25231;48.746;9.234;2022-08-14T12:19:46;95877.94;;;28.19;29.39
39555;BME280;25231;48.746;9.234;2022-08-14T12:22:12;95877.22;;;28.22;28.04
39555;BME280;25231;48.746;9.234;2022-08-14T12:24:37;95872.59;;;28.22;27.56
39555;BME280;25231;48.746;9.234;2022-08-14T12:27:02;95869.75;;;28.38;27.86
39555;BME280;25231;48.746;9.234;2022-08-14T12:29:28;95866.28;;;28.64;27.16
39555;BME280;25231;48.746;9.234;2022-08-14T12:31:58;95865.09;;;28.65;27.06
39555;BME280;25231;48.746;9.234;2022-08-14T12:34:30;95845.44;;;28.34;27.82
39555;BME280;25231;48.746;9.234;2022-08-14T12:37:03;95858.06;;;28.57;27.45
39555;BME280;25231;48.746;9.234;2022-08-14T12:39:30;95860.69;;;28.23;28.01
39555;BME280;25231;48.746;9.234;2022-08-14T12:41:55;95855.59;;;28.44;25.69
39555;BME280;25231;48.746;9.234;2022-08-14T12:44:38;95849.63;;;28.32;25.92
39555;BME280;25231;48.746;9.234;2022-08-14T12:47:08;95848.88;;;28.61;26.31
39555;BME280;25231;48.746;9.234;2022-08-14T12:49:37;95845.06;;;28.62;25.84
39555;BME280;25231;48.746;9.234;2022-08-14T12:52:03;95839.38;;;28.71;26.23
39555;BME280;25231;48.746;9.234;2022-08-14T12:54:30;95839.66;;;28.62;26.69
39555;BME280;25231;48.746;9.234;2022-08-14T12:57:06;95835.94;;;28.44;26.91
39555;BME280;25231;48.746;9.234;2022-08-14T12:59:32;95834.47;;;28.50;26.50
39555;BME280;25231;48.746;9.234;2022-08-14T13:02:00;95827.81;;;28.70;26.24
39555;BME280;25231;48.746;9.234;2022-08-14T13:04:27;95821.00;;;28.50;26.67
39555;BME280;25231;48.746;9.234;2022-08-14T13:07:02;95827.16;;;28.50;25.84
39555;BME280;25231;48.746;9.234;2022-08-14T13:09:31;95811.09;;;28.31;25.95
39555;BME280;25231;48.746;9.234;2022-08-14T13:12:01;95803.66;;;28.47;26.22
39555;BME280;25231;48.746;9.234;2022-08-14T13:14:27;95801.44;;;28.57;26.34
39555;BME280;25231;48.746;9.234;2022-08-14T13:16:58;95799.22;;;28.66;26.91
39555;BME280;25231;48.746;9.234;2022-08-14T13:19:24;95797.91;;;28.82;25.93